sensor_id;sensor_type;location;lat;lon;timestamp;pressure;altitude;pressure_sealevel;temperature;humidity
77454;BME280;66538;53.150;18.160;2024-01-30T00:00:15;102926.95;;;-1.56;100.00
77454;BME280;66538;53.150;18.160;2024-01-30T00:03:02;102928.71;;;-1.58;100.00
77454;BME280;66538;53.150;18.160;2024-01-30T00:05:29;102926.38;;;-1.59;100.00
77454;BME280;66538;53.150;18.160;2024-01-30T00:07:55;102925.57;;;-1.60;100.00
77454;BME280;66538;53.150;18.160;2024-01-30T00:10:22;102924.62;;;-1.60;100.00
77454;BME280;66538;53.150;18.160;2024-01-30T00:12:49;102923.13;;;-1.61;100.00
77454;BME280;66538;53.150;18.160;2024-01-30T00:15:15;102917.02;;;-1.62;100.00
77454;BME280;66538;53.150;18.160;2024-01-30T00:17:42;102917.81;;;-1.63;100.00
77454;BME280;66538;53.150;18.160;2024-01-30T00:20:09;102911.86;;;-1.64;100.00
77454;BME280;66538;53.150;18.160;2024-01-30T00:22:36;102916.89;;;-1.67;100.00
77454;BME280;66538;53.150;18.160;2024-01-30T00:25:03;102915.14;;;-1.67;100.00
77454;BME280;66538;53.150;18.160;2024-01-30T00:27:29;102915.17;;;-1.65;100.00
77454;BME280;66538;53.150;18.160;2024-01-30T00:29:56;102914.11;;;-1.65;100.00
77454;BME280;66538;53.150;18.160;2024-01-30T00:32:23;102912.58;;;-1.66;100.00
77454;BME280;66538;53.150;18.160;2024-01-30T00:34:49;102910.89;;;-1.67;100.00
77454;BME280;66538;53.150;18.160;2024-01-30T00:37:16;102907.52;;;-1.69;100.00
77454;BME280;66538;53.150;18.160;2024-01-30T00:39:43;102905.83;;;-1.70;100.00
77454;BME280;66538;53.150;18.160;2024-01-30T00:42:10;102908.78;;;-1.71;100.00
77454;BME280;66538;53.150;18.160;2024-01-30T00:44:36;102906.04;;;-1.72;100.00
77454;BME280;66538;53.150;18.160;2024-01-30T00:47:06;102900.86;;;-1.74;100.00
77454;BME280;66538;53.150;18.160;2024-01-30T00:49:32;102898.50;;;-1.73;100.00
77454;BME280;66538;53.150;18.160;2024-01-30T00:52:00;102898.73;;;-1.74;100.00
77454;BME280;66538;53.150;18.160;2024-01-30T00:54:26;102899.23;;;-1.73;100.00
77454;BME280;66538;53.150;18.160;2024-01-30T00:56:53;102898.04;;;-1.76;100.00
77454;BME280;66538;53.150;18.160;2024-01-30T00:59:20;102900.05;;;-1.75;100.00
77454;BME280;66538;53.150;18.160;2024-01-30T01:01:46;102898.34;;;-1.75;100.00
77454;BME280;66538;53.150;18.160;2024-01-30T01:04:13;102899.00;;;-1.77;100.00
77454;BME280;66538;53.150;18.160;2024-01-30T01:06:40;102903.12;;;-1.77;100.00
77454;BME280;66538;53.150;18.160;2024-01-30T01:09:10;102896.91;;;-1.79;100.00
77454;BME280;66538;53.150;18.160;2024-01-30T01:11:37;102899.34;;;-1.81;100.00
77454;BME280;66538;53.150;18.160;2024-01-30T01:14:04;102896.27;;;-1.80;100.00
77454;BME280;66538;53.150;18.160;2024-01-30T01:16:32;102894.08;;;-1.77;100.00
77454;BME280;66538;53.150;18.160;2024-01-30T01:18:59;102892.16;;;-1.78;100.00
77454;BME280;66538;53.150;18.160;2024-01-30T01:21:26;102894.19;;;-1.79;100.00
77454;BME280;66538;53.150;18.160;2024-01-30T01:23:53;102892.99;;;-1.81;100.00
77454;BME280;66538;53.150;18.160;2024-01-30T01:26:20;102888.34;;;-1.82;100.00
77454;BME280;66538;53.150;18.160;2024-01-30T01:28:48;102887.64;;;-1.83;100.00
77454;BME280;66538;53.150;18.160;2024-01-30T01:31:14;102884.55;;;-1.84;100.00
77454;BME280;66538;53.150;18.160;2024-01-30T01:33:41;102888.08;;;-1.86;100.00
77454;BME280;66538;53.150;18.160;2024-01-30T01:36:08;102885.38;;;-1.87;100.00
77454;BME280;66538;53.150;18.160;2024-01-30T01:38:34;102882.46;;;-1.88;100.00
77454;BME280;66538;53.150;18.160;2024-01-30T01:41:01;102882.08;;;-1.88;100.00
77454;BME280;66538;53.150;18.160;2024-01-30T01:43:27;102886.16;;;-1.88;100.00
77454;BME280;66538;53.150;18.160;2024-01-30T01:45:54;102886.62;;;-1.87;100.00
77454;BME280;66538;53.150;18.160;2024-01-30T01:48:20;102884.91;;;-1.86;100.00
77454;BME280;66538;53.150;18.160;2024-01-30T01:50:47;102889.41;;;-1.87;100.00
77454;BME280;66538;53.150;18.160;2024-01-30T01:53:15;102889.92;;;-1.88;100.00
77454;BME280;66538;53.150;18.160;2024-01-30T01:55:43;102891.74;;;-1.89;100.00
77454;BME280;66538;53.150;18.160;2024-01-30T01:58:09;102890.84;;;-1.89;100.00
77454;BME280;66538;53.150;18.160;2024-01-30T02:00:39;102888.60;;;-1.89;100.00
77454;BME280;66538;53.150;18.160;2024-01-30T02:03:11;102883.61;;;-1.91;100.00
77454;BME280;66538;53.150;18.160;2024-01-30T02:05:41;102885.66;;;-1.92;100.00
77454;BME280;66538;53.150;18.160;2024-01-30T02:08:08;102886.56;;;-1.94;100.00
77454;BME280;66538;53.150;18.160;2024-01-30T02:10:35;102884.44;;;-1.94;100.00
77454;BME280;66538;53.150;18.160;2024-01-30T02:13:02;102890.63;;;-1.96;100.00
77454;BME280;66538;53.150;18.160;2024-01-30T02:15:29;102890.44;;;-1.98;100.00
77454;BME280;66538;53.150;18.160;2024-01-30T02:17:55;102892.27;;;-1.98;100.00
77454;BME280;66538;53.150;18.160;2024-01-30T02:20:24;102890.13;;;-2.00;100.00
77454;BME280;66538;53.150;18.160;2024-01-30T02:22:52;102885.67;;;-2.02;100.00
77454;BME280;66538;53.150;18.160;2024-01-30T02:25:20;102884.48;;;-2.03;100.00
77454;BME280;66538;53.150;18.160;2024-01-30T02:27:47;102887.31;;;-2.05;100.00
77454;BME280;66538;53.150;18.160;2024-01-30T02:30:13;102891.64;;;-2.07;100.00
77454;BME280;66538;53.150;18.160;2024-01-30T02:32:40;102886.64;;;-2.11;100.00
77454;BME280;66538;53.150;18.160;2024-01-30T02:35:07;102893.92;;;-2.11;100.00
77454;BME280;66538;53.150;18.160;2024-01-30T02:37:33;102887.98;;;-2.12;100.00
77454;BME280;66538;53.150;18.160;2024-01-30T02:40:00;102887.11;;;-2.12;100.00
77454;BME280;66538;53.150;18.160;2024-01-30T02:42:26;102887.77;;;-2.12;100.00
77454;BME280;66538;53.150;18.160;2024-01-30T02:44:53;102884.16;;;-2.13;100.00
77454;BME280;66538;53.150;18.160;2024-01-30T02:47:20;102883.06;;;-2.15;100.00
77454;BME280;66538;53.150;18.160;2024-01-30T02:49:46;102880.92;;;-2.14;100.00
77454;BME280;66538;53.150;18.160;2024-01-30T02:52:13;102880.55;;;-2.14;100.00
77454;BME280;66538;53.150;18.160;2024-01-30T02:54:39;102881.75;;;-2.14;100.00
77454;BME280;66538;53.150;18.160;2024-01-30T02:57:06;102884.41;;;-2.14;100.00
77454;BME280;66538;53.150;18.160;2024-01-30T02:59:32;102881.02;;;-2.14;100.00
77454;BME280;66538;53.150;18.160;2024-01-30T03:02:02;102880.35;;;-2.14;100.00
77454;BME280;66538;53.150;18.160;2024-01-30T03:04:28;102877.60;;;-2.15;100.00
77454;BME280;66538;53.150;18.160;2024-01-30T03:06:56;102874.30;;;-2.14;100.00
77454;BME280;66538;53.150;18.160;2024-01-30T03:09:22;102875.34;;;-2.14;100.00
77454;BME280;66538;53.150;18.160;2024-01-30T03:11:49;102873.25;;;-2.14;100.00
77454;BME280;66538;53.150;18.160;2024-01-30T03:14:16;102870.30;;;-2.13;100.00
77454;BME280;66538;53.150;18.160;2024-01-30T03:16:42;102873.63;;;-2.14;100.00
77454;BME280;66538;53.150;18.160;2024-01-30T03:19:09;102880.64;;;-2.13;100.00
77454;BME280;66538;53.150;18.160;2024-01-30T03:21:36;102879.43;;;-2.14;100.00
77454;BME280;66538;53.150;18.160;2024-01-30T03:24:02;102877.66;;;-2.14;100.00
77454;BME280;66538;53.150;18.160;2024-01-30T03:26:29;102882.56;;;-2.11;100.00
77454;BME280;66538;53.150;18.160;2024-01-30T03:28:56;102883.68;;;-2.10;100.00
77454;BME280;66538;53.150;18.160;2024-01-30T03:31:22;102880.71;;;-2.08;100.00
77454;BME280;66538;53.150;18.160;2024-01-30T03:33:49;102880.21;;;-2.07;100.00
77454;BME280;66538;53.150;18.160;2024-01-30T03:36:16;102880.61;;;-2.05;100.00
77454;BME280;66538;53.150;18.160;2024-01-30T03:38:43;102875.81;;;-2.03;100.00
77454;BME280;66538;53.150;18.160;2024-01-30T03:41:09;102875.89;;;-2.00;100.00
77454;BME280;66538;53.150;18.160;2024-01-30T03:43:36;102869.42;;;-1.97;100.00
77454;BME280;66538;53.150;18.160;2024-01-30T03:46:03;102865.61;;;-1.94;100.00
77454;BME280;66538;53.150;18.160;2024-01-30T03:48:30;102868.14;;;-1.91;100.00
77454;BME280;66538;53.150;18.160;2024-01-30T03:50:56;102864.88;;;-1.88;100.00
77454;BME280;66538;53.150;18.160;2024-01-30T03:53:23;102864.80;;;-1.85;100.00
77454;BME280;66538;53.150;18.160;2024-01-30T03:55:50;102870.67;;;-1.84;100.00
77454;BME280;66538;53.150;18.160;2024-01-30T03:58:16;102867.35;;;-1.82;100.00
77454;BME280;66538;53.150;18.160;2024-01-30T04:00:43;102869.35;;;-1.81;100.00
77454;BME280;66538;53.150;18.160;2024-01-30T04:03:10;102870.19;;;-1.80;100.00
77454;BME280;66538;53.150;18.160;2024-01-30T04:05:36;102870.73;;;-1.78;100.00
77454;BME280;66538;53.150;18.160;2024-01-30T04:08:03;102872.73;;;-1.77;100.00
77454;BME280;66538;53.150;18.160;2024-01-30T04:10:30;102870.00;;;-1.76;100.00
77454;BME280;66538;53.150;18.160;2024-01-30T04:12:57;102869.48;;;-1.76;100.00
77454;BME280;66538;53.150;18.160;2024-01-30T04:15:23;102869.14;;;-1.76;100.00
77454;BME280;66538;53.150;18.160;2024-01-30T04:17:50;102870.41;;;-1.77;100.00
77454;BME280;66538;53.150;18.160;2024-01-30T04:20:17;102869.89;;;-1.77;100.00
77454;BME280;66538;53.150;18.160;2024-01-30T04:22:44;102870.81;;;-1.77;100.00
77454;BME280;66538;53.150;18.160;2024-01-30T04:25:14;102869.02;;;-1.77;100.00
77454;BME280;66538;53.150;18.160;2024-01-30T04:27:41;102868.46;;;-1.77;100.00
77454;BME280;66538;53.150;18.160;2024-01-30T04:30:08;102867.53;;;-1.76;100.00
77454;BME280;66538;53.150;18.160;2024-01-30T04:32:36;102864.64;;;-1.78;100.00
77454;BME280;66538;53.150;18.160;2024-01-30T04:35:03;102861.67;;;-1.76;100.00
77454;BME280;66538;53.150;18.160;2024-01-30T04:37:30;102862.09;;;-1.77;100.00
77454;BME280;66538;53.150;18.160;2024-01-30T04:39:57;102862.95;;;-1.76;100.00
77454;BME280;66538;53.150;18.160;2024-01-30T04:42:24;102865.33;;;-1.75;100.00
77454;BME280;66538;53.150;18.160;2024-01-30T04:44:50;102862.91;;;-1.74;100.00
77454;BME280;66538;53.150;18.160;2024-01-30T04:47:17;102868.52;;;-1.73;100.00
77454;BME280;66538;53.150;18.160;2024-01-30T04:49:44;102870.82;;;-1.72;100.00
77454;BME280;66538;53.150;18.160;2024-01-30T04:52:10;102869.98;;;-1.70;100.00
77454;BME280;66538;53.150;18.160;2024-01-30T04:54:37;102875.30;;;-1.68;100.00
77454;BME280;66538;53.150;18.160;2024-01-30T04:57:04;102875.24;;;-1.65;100.00
77454;BME280;66538;53.150;18.160;2024-01-30T04:59:35;102876.17;;;-1.64;100.00
77454;BME280;66538;53.150;18.160;2024-01-30T05:02:02;102874.80;;;-1.63;100.00
77454;BME280;66538;53.150;18.160;2024-01-30T05:04:29;102877.91;;;-1.62;100.00
77454;BME280;66538;53.150;18.160;2024-01-30T05:06:56;102873.83;;;-1.61;100.00
77454;BME280;66538;53.150;18.160;2024-01-30T05:09:22;102873.83;;;-1.60;100.00
77454;BME280;66538;53.150;18.160;2024-01-30T05:11:49;102870.54;;;-1.60;100.00
77454;BME280;66538;53.150;18.160;2024-01-30T05:14:15;102869.13;;;-1.61;100.00
77454;BME280;66538;53.150;18.160;2024-01-30T05:16:42;102867.52;;;-1.60;100.00
77454;BME280;66538;53.150;18.160;2024-01-30T05:19:13;102862.19;;;-1.60;100.00
77454;BME280;66538;53.150;18.160;2024-01-30T05:21:41;102860.42;;;-1.59;100.00
77454;BME280;66538;53.150;18.160;2024-01-30T05:24:07;102861.01;;;-1.57;100.00
77454;BME280;66538;53.150;18.160;2024-01-30T05:26:36;102861.23;;;-1.58;100.00
77454;BME280;66538;53.150;18.160;2024-01-30T05:29:03;102859.59;;;-1.55;100.00
77454;BME280;66538;53.150;18.160;2024-01-30T05:31:29;102860.91;;;-1.54;100.00
77454;BME280;66538;53.150;18.160;2024-01-30T05:33:56;102865.03;;;-1.53;100.00
77454;BME280;66538;53.150;18.160;2024-01-30T05:36:23;102864.98;;;-1.52;100.00
77454;BME280;66538;53.150;18.160;2024-01-30T05:38:49;102866.55;;;-1.52;100.00
77454;BME280;66538;53.150;18.160;2024-01-30T05:41:16;102868.00;;;-1.52;100.00
77454;BME280;66538;53.150;18.160;2024-01-30T05:43:42;102868.67;;;-1.52;100.00
77454;BME280;66538;53.150;18.160;2024-01-30T05:46:09;102869.56;;;-1.52;100.00
77454;BME280;66538;53.150;18.160;2024-01-30T05:48:36;102870.86;;;-1.53;100.00
77454;BME280;66538;53.150;18.160;2024-01-30T05:51:03;102875.48;;;-1.53;100.00
77454;BME280;66538;53.150;18.160;2024-01-30T05:53:30;102877.46;;;-1.53;100.00
77454;BME280;66538;53.150;18.160;2024-01-30T05:55:57;102877.45;;;-1.53;100.00
77454;BME280;66538;53.150;18.160;2024-01-30T05:58:24;102880.45;;;-1.52;100.00
77454;BME280;66538;53.150;18.160;2024-01-30T06:00:50;102877.27;;;-1.53;100.00
77454;BME280;66538;53.150;18.160;2024-01-30T06:03:17;102879.89;;;-1.52;100.00
77454;BME280;66538;53.150;18.160;2024-01-30T06:05:43;102875.07;;;-1.52;100.00
77454;BME280;66538;53.150;18.160;2024-01-30T06:08:10;102876.97;;;-1.51;100.00
77454;BME280;66538;53.150;18.160;2024-01-30T06:10:36;102871.75;;;-1.51;100.00
77454;BME280;66538;53.150;18.160;2024-01-30T06:13:03;102870.74;;;-1.51;100.00
77454;BME280;66538;53.150;18.160;2024-01-30T06:15:30;102869.24;;;-1.50;100.00
77454;BME280;66538;53.150;18.160;2024-01-30T06:17:56;102874.40;;;-1.50;100.00
77454;BME280;66538;53.150;18.160;2024-01-30T06:20:23;102877.77;;;-1.50;100.00
77454;BME280;66538;53.150;18.160;2024-01-30T06:22:50;102878.77;;;-1.50;100.00
77454;BME280;66538;53.150;18.160;2024-01-30T06:25:16;102883.20;;;-1.50;100.00
77454;BME280;66538;53.150;18.160;2024-01-30T06:27:43;102880.71;;;-1.50;100.00
77454;BME280;66538;53.150;18.160;2024-01-30T06:30:10;102887.58;;;-1.47;100.00
77454;BME280;66538;53.150;18.160;2024-01-30T06:32:37;102885.45;;;-1.45;100.00
77454;BME280;66538;53.150;18.160;2024-01-30T06:35:05;102883.32;;;-1.43;100.00
77454;BME280;66538;53.150;18.160;2024-01-30T06:37:32;102884.80;;;-1.40;100.00
77454;BME280;66538;53.150;18.160;2024-01-30T06:39:59;102882.91;;;-1.37;100.00
77454;BME280;66538;53.150;18.160;2024-01-30T06:42:25;102881.55;;;-1.35;100.00
77454;BME280;66538;53.150;18.160;2024-01-30T06:44:52;102882.21;;;-1.33;100.00
77454;BME280;66538;53.150;18.160;2024-01-30T06:47:18;102881.23;;;-1.32;100.00
77454;BME280;66538;53.150;18.160;2024-01-30T06:49:45;102881.27;;;-1.31;100.00
77454;BME280;66538;53.150;18.160;2024-01-30T06:52:12;102879.58;;;-1.30;100.00
77454;BME280;66538;53.150;18.160;2024-01-30T06:54:38;102881.83;;;-1.29;100.00
77454;BME280;66538;53.150;18.160;2024-01-30T06:57:06;102883.39;;;-1.27;100.00
77454;BME280;66538;53.150;18.160;2024-01-30T06:59:38;102883.95;;;-1.25;100.00
77454;BME280;66538;53.150;18.160;2024-01-30T07:02:10;102886.72;;;-1.22;100.00
77454;BME280;66538;53.150;18.160;2024-01-30T07:04:37;102885.85;;;-1.20;100.00
77454;BME280;66538;53.150;18.160;2024-01-30T07:07:03;102885.16;;;-1.17;100.00
77454;BME280;66538;53.150;18.160;2024-01-30T07:09:31;102881.50;;;-1.14;100.00
77454;BME280;66538;53.150;18.160;2024-01-30T07:11:58;102883.56;;;-1.11;100.00
77454;BME280;66538;53.150;18.160;2024-01-30T07:14:25;102888.45;;;-1.07;100.00
77454;BME280;66538;53.150;18.160;2024-01-30T07:16:51;102892.71;;;-1.03;100.00
77454;BME280;66538;53.150;18.160;2024-01-30T07:19:18;102892.72;;;-0.99;100.00
77454;BME280;66538;53.150;18.160;2024-01-30T07:21:44;102890.27;;;-0.96;100.00
77454;BME280;66538;53.150;18.160;2024-01-30T07:24:12;102888.83;;;-0.91;100.00
77454;BME280;66538;53.150;18.160;2024-01-30T07:26:39;102890.20;;;-0.88;100.00
77454;BME280;66538;53.150;18.160;2024-01-30T07:29:05;102886.34;;;-0.82;100.00
77454;BME280;66538;53.150;18.160;2024-01-30T07:31:32;102886.66;;;-0.76;100.00
77454;BME280;66538;53.150;18.160;2024-01-30T07:33:58;102890.17;;;-0.70;100.00
77454;BME280;66538;53.150;18.160;2024-01-30T07:36:25;102889.84;;;-0.65;100.00
77454;BME280;66538;53.150;18.160;2024-01-30T07:38:52;102887.00;;;-0.61;100.00
77454;BME280;66538;53.150;18.160;2024-01-30T07:41:20;102888.61;;;-0.54;100.00
77454;BME280;66538;53.150;18.160;2024-01-30T07:43:47;102882.73;;;-0.48;100.00
77454;BME280;66538;53.150;18.160;2024-01-30T07:46:13;102885.55;;;-0.40;100.00
77454;BME280;66538;53.150;18.160;2024-01-30T07:48:40;102884.97;;;-0.34;100.00
77454;BME280;66538;53.150;18.160;2024-01-30T07:51:07;102886.58;;;-0.27;100.00
77454;BME280;66538;53.150;18.160;2024-01-30T07:53:34;102888.41;;;-0.20;100.00
77454;BME280;66538;53.150;18.160;2024-01-30T07:56:00;102890.38;;;-0.13;100.00
77454;BME280;66538;53.150;18.160;2024-01-30T07:58:27;102891.22;;;-0.05;100.00
77454;BME280;66538;53.150;18.160;2024-01-30T08:00:53;102887.16;;;0.02;100.00
77454;BME280;66538;53.150;18.160;2024-01-30T08:03:20;102888.40;;;0.11;100.00
77454;BME280;66538;53.150;18.160;2024-01-30T08:05:47;102886.04;;;0.19;100.00
77454;BME280;66538;53.150;18.160;2024-01-30T08:08:13;102891.95;;;0.28;100.00
77454;BME280;66538;53.150;18.160;2024-01-30T08:10:40;102894.75;;;0.35;100.00
77454;BME280;66538;53.150;18.160;2024-01-30T08:13:07;102895.88;;;0.45;100.00
77454;BME280;66538;53.150;18.160;2024-01-30T08:15:35;102899.84;;;0.56;100.00
77454;BME280;66538;53.150;18.160;2024-01-30T08:18:01;102898.55;;;0.65;100.00
77454;BME280;66538;53.150;18.160;2024-01-30T08:20:28;102901.27;;;0.75;100.00
77454;BME280;66538;53.150;18.160;2024-01-30T08:22:55;102900.55;;;0.86;100.00
77454;BME280;66538;53.150;18.160;2024-01-30T08:25:22;102903.73;;;0.96;100.00
77454;BME280;66538;53.150;18.160;2024-01-30T08:27:49;102901.33;;;1.06;100.00
77454;BME280;66538;53.150;18.160;2024-01-30T08:30:15;102901.42;;;1.16;100.00
77454;BME280;66538;53.150;18.160;2024-01-30T08:32:42;102897.53;;;1.26;100.00
77454;BME280;66538;53.150;18.160;2024-01-30T08:35:09;102896.39;;;1.35;100.00
77454;BME280;66538;53.150;18.160;2024-01-30T08:37:35;102894.49;;;1.45;100.00
77454;BME280;66538;53.150;18.160;2024-01-30T08:40:02;102889.10;;;1.53;100.00
77454;BME280;66538;53.150;18.160;2024-01-30T08:42:31;102890.45;;;1.64;100.00
77454;BME280;66538;53.150;18.160;2024-01-30T08:44:57;102887.70;;;1.75;100.00
77454;BME280;66538;53.150;18.160;2024-01-30T08:47:24;102886.37;;;1.86;100.00
77454;BME280;66538;53.150;18.160;2024-01-30T08:49:51;102885.14;;;1.96;100.00
77454;BME280;66538;53.150;18.160;2024-01-30T08:52:18;102887.57;;;2.07;100.00
77454;BME280;66538;53.150;18.160;2024-01-30T08:54:44;102882.23;;;2.17;100.00
77454;BME280;66538;53.150;18.160;2024-01-30T08:57:12;102882.54;;;2.25;100.00
77454;BME280;66538;53.150;18.160;2024-01-30T08:59:38;102881.96;;;2.36;100.00
77454;BME280;66538;53.150;18.160;2024-01-30T09:02:05;102884.43;;;2.46;100.00
77454;BME280;66538;53.150;18.160;2024-01-30T09:04:31;102882.40;;;2.56;100.00
77454;BME280;66538;53.150;18.160;2024-01-30T09:06:58;102878.09;;;2.65;100.00
77454;BME280;66538;53.150;18.160;2024-01-30T09:09:25;102879.55;;;2.76;100.00
77454;BME280;66538;53.150;18.160;2024-01-30T09:11:51;102873.58;;;2.86;100.00
77454;BME280;66538;53.150;18.160;2024-01-30T09:14:18;102872.23;;;2.95;100.00
77454;BME280;66538;53.150;18.160;2024-01-30T09:16:44;102868.81;;;3.03;100.00
77454;BME280;66538;53.150;18.160;2024-01-30T09:19:11;102866.34;;;3.13;100.00
77454;BME280;66538;53.150;18.160;2024-01-30T09:21:37;102864.19;;;3.21;100.00
77454;BME280;66538;53.150;18.160;2024-01-30T09:24:05;102862.30;;;3.30;100.00
77454;BME280;66538;53.150;18.160;2024-01-30T09:26:31;102866.77;;;3.38;100.00
77454;BME280;66538;53.150;18.160;2024-01-30T09:28:58;102864.70;;;3.46;100.00
77454;BME280;66538;53.150;18.160;2024-01-30T09:31:25;102862.13;;;3.55;100.00
77454;BME280;66538;53.150;18.160;2024-01-30T09:33:51;102859.66;;;3.64;100.00
77454;BME280;66538;53.150;18.160;2024-01-30T09:36:20;102857.64;;;3.72;100.00
77454;BME280;66538;53.150;18.160;2024-01-30T09:38:47;102858.98;;;3.81;100.00
77454;BME280;66538;53.150;18.160;2024-01-30T09:41:14;102856.84;;;3.89;100.00
77454;BME280;66538;53.150;18.160;2024-01-30T09:43:47;102856.04;;;3.96;100.00
77454;BME280;66538;53.150;18.160;2024-01-30T09:46:17;102855.93;;;4.04;100.00
77454;BME280;66538;53.150;18.160;2024-01-30T09:48:47;102852.02;;;4.12;100.00
77454;BME280;66538;53.150;18.160;2024-01-30T09:51:15;102852.27;;;4.20;100.00
77454;BME280;66538;53.150;18.160;2024-01-30T09:53:43;102849.85;;;4.29;100.00
77454;BME280;66538;53.150;18.160;2024-01-30T09:56:13;102847.17;;;4.38;100.00
77454;BME280;66538;53.150;18.160;2024-01-30T09:58:40;102844.23;;;4.46;100.00
77454;BME280;66538;53.150;18.160;2024-01-30T10:01:08;102843.28;;;4.56;100.00
77454;BME280;66538;53.150;18.160;2024-01-30T10:03:35;102842.41;;;4.65;100.00
77454;BME280;66538;53.150;18.160;2024-01-30T10:06:01;102837.27;;;4.76;100.00
77454;BME280;66538;53.150;18.160;2024-01-30T10:08:28;102836.67;;;4.86;100.00
77454;BME280;66538;53.150;18.160;2024-01-30T10:10:56;102828.40;;;4.93;100.00
77454;BME280;66538;53.150;18.160;2024-01-30T10:13:23;102830.54;;;5.04;100.00
77454;BME280;66538;53.150;18.160;2024-01-30T10:15:50;102826.06;;;5.13;100.00
77454;BME280;66538;53.150;18.160;2024-01-30T10:18:17;102818.43;;;5.21;100.00
77454;BME280;66538;53.150;18.160;2024-01-30T10:20:44;102819.14;;;5.28;100.00
77454;BME280;66538;53.150;18.160;2024-01-30T10:23:11;102817.70;;;5.35;99.41
77454;BME280;66538;53.150;18.160;2024-01-30T10:25:38;102808.61;;;5.41;99.31
77454;BME280;66538;53.150;18.160;2024-01-30T10:28:05;102807.77;;;5.49;99.37
77454;BME280;66538;53.150;18.160;2024-01-30T10:30:31;102806.38;;;5.56;98.29
77454;BME280;66538;53.150;18.160;2024-01-30T10:32:58;102805.70;;;5.62;97.57
77454;BME280;66538;53.150;18.160;2024-01-30T10:35:24;102805.14;;;5.69;97.06
77454;BME280;66538;53.150;18.160;2024-01-30T10:37:51;102803.73;;;5.74;96.38
77454;BME280;66538;53.150;18.160;2024-01-30T10:40:21;102806.02;;;5.81;96.07
77454;BME280;66538;53.150;18.160;2024-01-30T10:42:52;102800.52;;;5.86;95.63
77454;BME280;66538;53.150;18.160;2024-01-30T10:45:22;102796.46;;;5.93;95.13
77454;BME280;66538;53.150;18.160;2024-01-30T10:47:50;102793.39;;;5.99;95.30
77454;BME280;66538;53.150;18.160;2024-01-30T10:50:17;102799.16;;;6.06;95.38
77454;BME280;66538;53.150;18.160;2024-01-30T10:52:44;102798.52;;;6.14;93.65
77454;BME280;66538;53.150;18.160;2024-01-30T10:55:11;102798.14;;;6.22;94.21
77454;BME280;66538;53.150;18.160;2024-01-30T10:57:39;102795.41;;;6.29;93.20
77454;BME280;66538;53.150;18.160;2024-01-30T11:00:13;102793.48;;;6.37;93.10
77454;BME280;66538;53.150;18.160;2024-01-30T11:02:44;102793.26;;;6.45;92.33
77454;BME280;66538;53.150;18.160;2024-01-30T11:05:12;102791.98;;;6.50;92.09
77454;BME280;66538;53.150;18.160;2024-01-30T11:07:39;102795.55;;;6.58;91.72
77454;BME280;66538;53.150;18.160;2024-01-30T11:10:09;102791.37;;;6.66;92.28
77454;BME280;66538;53.150;18.160;2024-01-30T11:12:40;102786.04;;;6.74;91.55
77454;BME280;66538;53.150;18.160;2024-01-30T11:15:13;102784.88;;;6.82;91.51
77454;BME280;66538;53.150;18.160;2024-01-30T11:20:14;102778.96;;;6.94;90.39
77454;BME280;66538;53.150;18.160;2024-01-30T11:22:43;102773.36;;;7.00;89.16
77454;BME280;66538;53.150;18.160;2024-01-30T11:25:12;102768.95;;;7.05;88.11
77454;BME280;66538;53.150;18.160;2024-01-30T11:27:39;102769.07;;;7.09;88.91
77454;BME280;66538;53.150;18.160;2024-01-30T11:30:07;102764.91;;;7.13;89.21
77454;BME280;66538;53.150;18.160;2024-01-30T11:32:35;102762.52;;;7.19;89.12
77454;BME280;66538;53.150;18.160;2024-01-30T11:35:05;102759.59;;;7.24;88.84
77454;BME280;66538;53.150;18.160;2024-01-30T11:37:36;102758.73;;;7.27;87.97
77454;BME280;66538;53.150;18.160;2024-01-30T11:40:05;102754.23;;;7.30;87.81
77454;BME280;66538;53.150;18.160;2024-01-30T11:42:32;102753.20;;;7.31;87.22
77454;BME280;66538;53.150;18.160;2024-01-30T11:45:00;102755.20;;;7.37;88.10
77454;BME280;66538;53.150;18.160;2024-01-30T11:47:29;102749.31;;;7.42;87.78
77454;BME280;66538;53.150;18.160;2024-01-30T11:49:56;102750.56;;;7.47;88.03
77454;BME280;66538;53.150;18.160;2024-01-30T11:52:23;102744.43;;;7.53;87.27
77454;BME280;66538;53.150;18.160;2024-01-30T11:54:50;102742.92;;;7.57;85.32
77454;BME280;66538;53.150;18.160;2024-01-30T11:57:17;102738.52;;;7.58;82.44
77454;BME280;66538;53.150;18.160;2024-01-30T11:59:43;102733.45;;;7.59;83.87
77454;BME280;66538;53.150;18.160;2024-01-30T12:02:15;102731.59;;;7.61;83.99
77454;BME280;66538;53.150;18.160;2024-01-30T12:04:43;102729.32;;;7.63;83.25
77454;BME280;66538;53.150;18.160;2024-01-30T12:07:11;102727.20;;;7.67;84.58
77454;BME280;66538;53.150;18.160;2024-01-30T12:09:37;102724.73;;;7.72;84.44
77454;BME280;66538;53.150;18.160;2024-01-30T12:12:04;102720.70;;;7.78;84.04
77454;BME280;66538;53.150;18.160;2024-01-30T12:14:32;102721.52;;;7.85;82.99
77454;BME280;66538;53.150;18.160;2024-01-30T12:16:58;102719.79;;;7.91;83.76
77454;BME280;66538;53.150;18.160;2024-01-30T12:19:26;102715.33;;;7.99;83.07
77454;BME280;66538;53.150;18.160;2024-01-30T12:21:57;102709.64;;;8.08;82.86
77454;BME280;66538;53.150;18.160;2024-01-30T12:24:28;102708.73;;;8.19;82.42
77454;BME280;66538;53.150;18.160;2024-01-30T12:26:58;102709.70;;;8.31;82.34
77454;BME280;66538;53.150;18.160;2024-01-30T12:29:25;102706.21;;;8.42;80.57
77454;BME280;66538;53.150;18.160;2024-01-30T12:31:55;102704.94;;;8.53;79.77
77454;BME280;66538;53.150;18.160;2024-01-30T12:34:24;102699.06;;;8.65;80.71
77454;BME280;66538;53.150;18.160;2024-01-30T12:36:51;102697.64;;;8.78;80.63